sensor_id;sensor_type;location;lat;lon;timestamp;pressure;altitude;pressure_sealevel;temperature;humidity
41800;BME280;27468;47.460;19.034;2023-03-04T00:01:41;100531.25;;;2.62;62.38
41800;BME280;27468;47.460;19.034;2023-03-04T00:04:06;100515.44;;;2.50;62.45
41800;BME280;27468;47.460;19.034;2023-03-04T00:06:31;100535.47;;;2.54;62.56
41800;BME280;27468;47.460;19.034;2023-03-04T00:08:57;100475.91;;;2.15;62.87
41800;BME280;27468;47.460;19.034;2023-03-04T00:11:23;100534.41;;;2.43;63.11
41800;BME280;27468;47.460;19.034;2023-03-04T00:13:48;100474.91;;;2.07;63.19
41800;BME280;27468;47.460;19.034;2023-03-04T00:16:14;100530.84;;;2.36;63.46
41800;BME280;27468;47.460;19.034;2023-03-04T00:18:39;100504.53;;;2.16;63.47
41800;BME280;27468;47.460;19.034;2023-03-04T00:21:05;100479.06;;;1.97;63.91
41800;BME280;27468;47.460;19.034;2023-03-04T00:23:30;100533.28;;;2.24;64.18
41800;BME280;27468;47.460;19.034;2023-03-04T00:25:56;100494.78;;;2.03;64.29
41800;BME280;27468;47.460;19.034;2023-03-04T00:28:21;100478.16;;;1.93;64.32
41800;BME280;27468;47.460;19.034;2023-03-04T00:30:47;100449.25;;;1.75;64.32
41800;BME280;27468;47.460;19.034;2023-03-04T00:33:12;100492.94;;;1.96;64.26
41800;BME280;27468;47.460;19.034;2023-03-04T00:35:38;100493.81;;;1.98;64.76
41800;BME280;27468;47.460;19.034;2023-03-04T00:38:03;100470.97;;;1.79;64.70
41800;BME280;27468;47.460;19.034;2023-03-04T00:40:29;100494.53;;;1.88;64.43
41800;BME280;27468;47.460;19.034;2023-03-04T00:42:54;100463.84;;;1.65;64.75
41800;BME280;27468;47.460;19.034;2023-03-04T00:45:19;100513.69;;;1.94;64.89
41800;BME280;27468;47.460;19.034;2023-03-04T00:47:45;100527.69;;;2.01;64.84
41800;BME280;27468;47.460;19.034;2023-03-04T00:50:10;100536.25;;;1.95;65.06
41800;BME280;27468;47.460;19.034;2023-03-04T00:52:36;100493.31;;;1.66;65.30
41800;BME280;27468;47.460;19.034;2023-03-04T00:55:01;100504.69;;;1.73;65.60
41800;BME280;27468;47.460;19.034;2023-03-04T00:57:27;100488.91;;;1.63;65.22
41800;BME280;27468;47.460;19.034;2023-03-04T00:59:52;100518.66;;;1.81;65.43
41800;BME280;27468;47.460;19.034;2023-03-04T01:02:18;100459.16;;;1.46;65.33
41800;BME280;27468;47.460;19.034;2023-03-04T01:04:43;100473.13;;;1.53;65.42
41800;BME280;27468;47.460;19.034;2023-03-04T01:07:09;100457.25;;;1.38;65.21
41800;BME280;27468;47.460;19.034;2023-03-04T01:09:34;100431.09;;;1.27;65.33
41800;BME280;27468;47.460;19.034;2023-03-04T01:12:00;100497.56;;;1.62;65.58
41800;BME280;27468;47.460;19.034;2023-03-04T01:14:25;100486.25;;;1.59;65.28
41800;BME280;27468;47.460;19.034;2023-03-04T01:16:51;100418.03;;;1.24;65.64
41800;BME280;27468;47.460;19.034;2023-03-04T01:19:17;100499.38;;;1.67;65.68
41800;BME280;27468;47.460;19.034;2023-03-04T01:21:42;100483.50;;;1.51;65.75
41800;BME280;27468;47.460;19.034;2023-03-04T01:24:07;100451.09;;;1.32;66.10
41800;BME280;27468;47.460;19.034;2023-03-04T01:26:33;100493.84;;;1.48;66.26
41800;BME280;27468;47.460;19.034;2023-03-04T01:28:59;100498.28;;;1.55;66.29
41800;BME280;27468;47.460;19.034;2023-03-04T01:31:24;100502.66;;;1.56;66.13
41800;BME280;27468;47.460;19.034;2023-03-04T01:33:50;100486.78;;;1.41;66.60
41800;BME280;27468;47.460;19.034;2023-03-04T01:36:15;100478.78;;;1.30;66.89
41800;BME280;27468;47.460;19.034;2023-03-04T01:38:40;100460.47;;;1.24;66.91
41800;BME280;27468;47.460;19.034;2023-03-04T01:41:06;100425.56;;;1.09;66.60
41800;BME280;27468;47.460;19.034;2023-03-04T01:43:34;100453.50;;;1.22;67.00
41800;BME280;27468;47.460;19.034;2023-03-04T01:46:01;100479.75;;;1.37;66.96
41800;BME280;27468;47.460;19.034;2023-03-04T01:48:32;100470.16;;;1.33;66.84
41800;BME280;27468;47.460;19.034;2023-03-04T01:51:02;100407.00;;;0.89;67.62
41800;BME280;27468;47.460;19.034;2023-03-04T01:53:29;100471.72;;;1.23;67.71
41800;BME280;27468;47.460;19.034;2023-03-04T01:56:00;100413.91;;;0.87;67.90
41800;BME280;27468;47.460;19.034;2023-03-04T01:58:28;100422.69;;;0.93;67.68
41800;BME280;27468;47.460;19.034;2023-03-04T02:00:55;100431.44;;;0.98;67.92
41800;BME280;27468;47.460;19.034;2023-03-04T02:03:21;100466.28;;;1.10;68.15
41800;BME280;27468;47.460;19.034;2023-03-04T02:05:51;100422.53;;;0.86;67.72
41800;BME280;27468;47.460;19.034;2023-03-04T02:08:18;100465.53;;;1.15;67.39
41800;BME280;27468;47.460;19.034;2023-03-04T02:10:45;100439.06;;;0.91;68.09
41800;BME280;27468;47.460;19.034;2023-03-04T02:13:12;100451.47;;;1.06;67.94
41800;BME280;27468;47.460;19.034;2023-03-04T02:15:37;100448.75;;;0.99;68.29
41800;BME280;27468;47.460;19.034;2023-03-04T02:18:13;100417.28;;;0.83;68.01
41800;BME280;27468;47.460;19.034;2023-03-04T02:20:44;100411.88;;;0.72;68.78
41800;BME280;27468;47.460;19.034;2023-03-04T02:26:17;100444.25;;;0.91;68.47
41800;BME280;27468;47.460;19.034;2023-03-04T02:28:44;100380.56;;;0.64;68.21
41800;BME280;27468;47.460;19.034;2023-03-04T02:33:46;100435.41;;;0.81;68.85
41800;BME280;27468;47.460;19.034;2023-03-04T02:36:12;100386.44;;;0.54;68.79
41800;BME280;27468;47.460;19.034;2023-03-04T02:38:38;100390.78;;;0.55;68.89
41800;BME280;27468;47.460;19.034;2023-03-04T02:41:03;100388.97;;;0.51;69.04
41800;BME280;27468;47.460;19.034;2023-03-04T02:43:29;100406.50;;;0.63;68.54
41800;BME280;27468;47.460;19.034;2023-03-04T02:45:54;100417.84;;;0.68;68.87
41800;BME280;27468;47.460;19.034;2023-03-04T02:48:21;100403.69;;;0.52;69.32
41800;BME280;27468;47.460;19.034;2023-03-04T02:50:50;100398.50;;;0.52;69.23
41800;BME280;27468;47.460;19.034;2023-03-04T02:53:17;100367.03;;;0.36;69.17
41800;BME280;27468;47.460;19.034;2023-03-04T02:55:45;100418.63;;;0.64;69.19
41800;BME280;27468;47.460;19.034;2023-03-04T02:58:11;100401.91;;;0.50;69.43
41800;BME280;27468;47.460;19.034;2023-03-04T03:00:37;100368.56;;;0.26;69.75
41800;BME280;27468;47.460;19.034;2023-03-04T03:03:03;100341.53;;;0.15;69.91
41800;BME280;27468;47.460;19.034;2023-03-04T03:05:30;100359.63;;;0.13;70.11
41800;BME280;27468;47.460;19.034;2023-03-04T03:07:56;100419.84;;;0.39;70.43
41800;BME280;27468;47.460;19.034;2023-03-04T03:10:21;100410.41;;;0.43;70.30
41800;BME280;27468;47.460;19.034;2023-03-04T03:12:47;100346.44;;;0.03;70.14
41800;BME280;27468;47.460;19.034;2023-03-04T03:15:12;100402.38;;;0.30;70.35
41800;BME280;27468;47.460;19.034;2023-03-04T03:17:38;100333.34;;;-0.05;70.37
41800;BME280;27468;47.460;19.034;2023-03-04T03:20:04;100392.75;;;0.26;70.74
41800;BME280;27468;47.460;19.034;2023-03-04T03:22:29;100337.78;;;0.02;70.33
41800;BME280;27468;47.460;19.034;2023-03-04T03:24:55;100363.94;;;0.13;70.62
41800;BME280;27468;47.460;19.034;2023-03-04T03:27:20;100384.97;;;0.26;70.83
41800;BME280;27468;47.460;19.034;2023-03-04T03:29:45;100376.16;;;0.18;71.24
41800;BME280;27468;47.460;19.034;2023-03-04T03:32:11;100394.47;;;0.26;71.93
41800;BME280;27468;47.460;19.034;2023-03-04T03:34:36;100355.16;;;0.06;71.52
41800;BME280;27468;47.460;19.034;2023-03-04T03:37:02;100356.00;;;0.05;71.65
41800;BME280;27468;47.460;19.034;2023-03-04T03:39:27;100393.56;;;0.24;72.11
41800;BME280;27468;47.460;19.034;2023-03-04T03:41:52;100354.19;;;0.01;71.96
41800;BME280;27468;47.460;19.034;2023-03-04T03:44:18;100401.13;;;0.15;72.66
41800;BME280;27468;47.460;19.034;2023-03-04T03:46:43;100374.06;;;0.02;73.21
41800;BME280;27468;47.460;19.034;2023-03-04T03:49:09;100356.56;;;-0.10;73.24
41800;BME280;27468;47.460;19.034;2023-03-04T03:51:34;100346.13;;;-0.13;72.86
41800;BME280;27468;47.460;19.034;2023-03-04T03:53:59;100375.06;;;0.07;72.56
41800;BME280;27468;47.460;19.034;2023-03-04T03:56:25;100371.34;;;-0.06;73.35
41800;BME280;27468;47.460;19.034;2023-03-04T03:58:50;100333.63;;;-0.30;73.34
41800;BME280;27468;47.460;19.034;2023-03-04T04:01:16;100316.06;;;-0.42;73.60
41800;BME280;27468;47.460;19.034;2023-03-04T04:03:41;100331.94;;;-0.28;73.46
41800;BME280;27468;47.460;19.034;2023-03-04T04:06:06;100392.25;;;0.04;73.44
41800;BME280;27468;47.460;19.034;2023-03-04T04:08:32;100365.94;;;-0.15;73.63
41800;BME280;27468;47.460;19.034;2023-03-04T04:10:57;100388.63;;;-0.05;73.85
41800;BME280;27468;47.460;19.034;2023-03-04T04:13:23;100352.47;;;-0.36;74.01
41800;BME280;27468;47.460;19.034;2023-03-04T04:15:50;100396.31;;;-0.09;74.22
41800;BME280;27468;47.460;19.034;2023-03-04T04:18:16;100383.91;;;-0.22;74.59
41800;BME280;27468;47.460;19.034;2023-03-04T04:20:41;100346.38;;;-0.38;75.07
41800;BME280;27468;47.460;19.034;2023-03-04T04:23:06;100343.88;;;-0.35;74.59
41800;BME280;27468;47.460;19.034;2023-03-04T04:25:32;100388.47;;;-0.12;74.92
41800;BME280;27468;47.460;19.034;2023-03-04T04:27:57;100385.88;;;-0.12;74.93
41800;BME280;27468;47.460;19.034;2023-03-04T04:30:23;100377.94;;;-0.18;75.06
41800;BME280;27468;47.460;19.034;2023-03-04T04:32:49;100353.41;;;-0.34;74.77
41800;BME280;27468;47.460;19.034;2023-03-04T04:35:14;100374.38;;;-0.23;75.18
41800;BME280;27468;47.460;19.034;2023-03-04T04:37:40;100364.75;;;-0.29;74.67
41800;BME280;27468;47.460;19.034;2023-03-04T04:40:06;100388.28;;;-0.20;75.28
41800;BME280;27468;47.460;19.034;2023-03-04T04:42:32;100375.06;;;-0.30;75.14
41800;BME280;27468;47.460;19.034;2023-03-04T04:44:57;100344.28;;;-0.54;75.71
41800;BME280;27468;47.460;19.034;2023-03-04T04:47:23;100344.50;;;-0.45;75.57
41800;BME280;27468;47.460;19.034;2023-03-04T04:49:48;100314.78;;;-0.61;75.61
41800;BME280;27468;47.460;19.034;2023-03-04T04:52:13;100335.78;;;-0.49;75.36
41800;BME280;27468;47.460;19.034;2023-03-04T04:54:39;100335.97;;;-0.41;75.31
41800;BME280;27468;47.460;19.034;2023-03-04T04:57:04;100327.09;;;-0.51;75.10
41800;BME280;27468;47.460;19.034;2023-03-04T04:59:30;100362.88;;;-0.35;75.07
41800;BME280;27468;47.460;19.034;2023-03-04T05:01:55;100373.47;;;-0.25;74.96
41800;BME280;27468;47.460;19.034;2023-03-04T05:04:20;100373.56;;;-0.21;74.42
41800;BME280;27468;47.460;19.034;2023-03-04T05:06:46;100310.47;;;-0.62;73.73
41800;BME280;27468;47.460;19.034;2023-03-04T05:09:11;100364.78;;;-0.27;73.29
41800;BME280;27468;47.460;19.034;2023-03-04T05:11:37;100378.72;;;-0.22;73.19
41800;BME280;27468;47.460;19.034;2023-03-04T05:14:02;100372.56;;;-0.27;73.34
41800;BME280;27468;47.460;19.034;2023-03-04T05:16:28;100388.31;;;-0.18;73.50
41800;BME280;27468;47.460;19.034;2023-03-04T05:18:53;100381.31;;;-0.22;73.21
41800;BME280;27468;47.460;19.034;2023-03-04T05:21:19;100345.41;;;-0.43;73.33
41800;BME280;27468;47.460;19.034;2023-03-04T05:23:44;100390.06;;;-0.17;73.48
41800;BME280;27468;47.460;19.034;2023-03-04T05:26:13;100386.56;;;-0.19;73.45
41800;BME280;27468;47.460;19.034;2023-03-04T05:28:39;100354.81;;;-0.47;73.29
41800;BME280;27468;47.460;19.034;2023-03-04T05:31:05;100384.81;;;-0.20;73.22
41800;BME280;27468;47.460;19.034;2023-03-04T05:33:30;100366.44;;;-0.29;73.03
41800;BME280;27468;47.460;19.034;2023-03-04T05:35:56;100382.41;;;-0.13;73.15
41800;BME280;27468;47.460;19.034;2023-03-04T05:38:22;100381.56;;;-0.12;73.53
41800;BME280;27468;47.460;19.034;2023-03-04T05:40:49;100398.81;;;-0.12;72.76
41800;BME280;27468;47.460;19.034;2023-03-04T05:43:19;100381.63;;;-0.09;72.63
41800;BME280;27468;47.460;19.034;2023-03-04T05:45:48;100407.78;;;0.04;72.31
41800;BME280;27468;47.460;19.034;2023-03-04T05:48:14;100390.47;;;-0.01;71.67
41800;BME280;27468;47.460;19.034;2023-03-04T05:50:39;100361.56;;;-0.17;71.59
41800;BME280;27468;47.460;19.034;2023-03-04T05:53:04;100368.94;;;0.05;72.00
41800;BME280;27468;47.460;19.034;2023-03-04T05:55:30;100373.22;;;0.03;71.68
41800;BME280;27468;47.460;19.034;2023-03-04T05:57:56;100407.59;;;0.32;71.69
41800;BME280;27468;47.460;19.034;2023-03-04T06:00:22;100389.38;;;0.29;70.95
41800;BME280;27468;47.460;19.034;2023-03-04T06:02:47;100407.03;;;0.47;70.61
41800;BME280;27468;47.460;19.034;2023-03-04T06:05:13;100387.88;;;0.40;69.88
41800;BME280;27468;47.460;19.034;2023-03-04T06:07:39;100416.03;;;0.64;70.02
41800;BME280;27468;47.460;19.034;2023-03-04T06:10:05;100402.06;;;0.59;70.04
41800;BME280;27468;47.460;19.034;2023-03-04T06:12:31;100399.53;;;0.60;69.93
41800;BME280;27468;47.460;19.034;2023-03-04T06:14:56;100399.69;;;0.68;69.66
41800;BME280;27468;47.460;19.034;2023-03-04T06:17:22;100421.53;;;0.79;69.36
41800;BME280;27468;47.460;19.034;2023-03-04T06:19:47;100396.19;;;0.68;69.64
41800;BME280;27468;47.460;19.034;2023-03-04T06:22:13;100365.75;;;0.59;69.70
41800;BME280;27468;47.460;19.034;2023-03-04T06:24:38;100427.06;;;0.96;69.30
41800;BME280;27468;47.460;19.034;2023-03-04T06:27:04;100426.41;;;1.06;69.13
41800;BME280;27468;47.460;19.034;2023-03-04T06:29:30;100419.53;;;1.10;69.01
41800;BME280;27468;47.460;19.034;2023-03-04T06:31:56;100438.69;;;1.16;68.53
41800;BME280;27468;47.460;19.034;2023-03-04T06:34:21;100403.88;;;1.05;68.23
41800;BME280;27468;47.460;19.034;2023-03-04T06:36:47;100387.41;;;1.05;68.16
41800;BME280;27468;47.460;19.034;2023-03-04T06:39:12;100387.63;;;1.17;68.00
41800;BME280;27468;47.460;19.034;2023-03-04T06:41:38;100429.78;;;1.50;67.62
41800;BME280;27468;47.460;19.034;2023-03-04T06:44:04;100440.25;;;1.55;67.47
41800;BME280;27468;47.460;19.034;2023-03-04T06:46:32;100378.38;;;1.32;67.56
41800;BME280;27468;47.460;19.034;2023-03-04T06:48:57;100431.03;;;1.74;67.47
41800;BME280;27468;47.460;19.034;2023-03-04T06:51:22;100427.72;;;1.84;66.77
41800;BME280;27468;47.460;19.034;2023-03-04T06:53:48;100424.34;;;1.88;66.19
41800;BME280;27468;47.460;19.034;2023-03-04T06:56:13;100423.69;;;2.01;65.87
41800;BME280;27468;47.460;19.034;2023-03-04T06:58:45;100380.00;;;1.80;65.64
41800;BME280;27468;47.460;19.034;2023-03-04T07:01:16;100422.94;;;2.10;65.73
41800;BME280;27468;47.460;19.034;2023-03-04T07:03:43;100432.72;;;2.26;65.66
41800;BME280;27468;47.460;19.034;2023-03-04T07:06:10;100408.50;;;2.30;65.66
41800;BME280;27468;47.460;19.034;2023-03-04T07:08:35;100407.66;;;2.31;65.44
41800;BME280;27468;47.460;19.034;2023-03-04T07:11:07;100422.69;;;2.55;65.46
41800;BME280;27468;47.460;19.034;2023-03-04T07:13:33;100409.66;;;2.52;65.20
41800;BME280;27468;47.460;19.034;2023-03-04T07:16:09;100419.38;;;2.67;64.86
41800;BME280;27468;47.460;19.034;2023-03-04T07:18:36;100421.28;;;2.80;65.39
41800;BME280;27468;47.460;19.034;2023-03-04T07:21:02;100421.38;;;2.86;64.68
41800;BME280;27468;47.460;19.034;2023-03-04T07:23:27;100417.97;;;2.94;64.32
41800;BME280;27468;47.460;19.034;2023-03-04T07:25:53;100421.56;;;3.04;64.12
41800;BME280;27468;47.460;19.034;2023-03-04T07:28:18;100398.03;;;2.96;63.78
41800;BME280;27468;47.460;19.034;2023-03-04T07:30:44;100419.91;;;3.12;63.24
41800;BME280;27468;47.460;19.034;2023-03-04T07:33:09;100407.78;;;3.14;63.27
41800;BME280;27468;47.460;19.034;2023-03-04T07:35:35;100409.59;;;3.21;63.40
41800;BME280;27468;47.460;19.034;2023-03-04T07:38:01;100399.19;;;3.23;62.29
41800;BME280;27468;47.460;19.034;2023-03-04T07:40:26;100411.53;;;3.41;62.31
41800;BME280;27468;47.460;19.034;2023-03-04T07:42:53;100396.75;;;3.40;61.70
41800;BME280;27468;47.460;19.034;2023-03-04T07:45:19;100401.16;;;3.51;61.20
41800;BME280;27468;47.460;19.034;2023-03-04T07:47:44;100356.72;;;3.31;60.66
41800;BME280;27468;47.460;19.034;2023-03-04T07:50:10;100400.44;;;3.66;60.61
41800;BME280;27468;47.460;19.034;2023-03-04T07:52:40;100411.84;;;3.80;59.62
41800;BME280;27468;47.460;19.034;2023-03-04T07:55:07;100408.47;;;3.92;59.13
41800;BME280;27468;47.460;19.034;2023-03-04T07:57:33;100385.03;;;3.95;58.99
41800;BME280;27468;47.460;19.034;2023-03-04T07:59:58;100391.19;;;4.09;59.00
41800;BME280;27468;47.460;19.034;2023-03-04T08:02:24;100386.84;;;4.10;57.33
41800;BME280;27468;47.460;19.034;2023-03-04T08:04:49;100395.81;;;4.63;52.13
41800;BME280;27468;47.460;19.034;2023-03-04T08:07:14;100390.63;;;4.70;52.06
41800;BME280;27468;47.460;19.034;2023-03-04T08:09:40;100395.00;;;4.78;52.45
41800;BME280;27468;47.460;19.034;2023-03-04T08:12:06;100372.34;;;4.71;52.98
41800;BME280;27468;47.460;19.034;2023-03-04T08:14:31;100358.44;;;4.80;50.71
41800;BME280;27468;47.460;19.034;2023-03-04T08:16:58;100363.69;;;4.83;50.37
41800;BME280;27468;47.460;19.034;2023-03-04T08:19:23;100392.50;;;5.10;50.19
41800;BME280;27468;47.460;19.034;2023-03-04T08:21:49;100348.94;;;4.98;48.92
41800;BME280;27468;47.460;19.034;2023-03-04T08:24:14;100351.56;;;5.11;49.57
41800;BME280;27468;47.460;19.034;2023-03-04T08:26:43;100382.97;;;5.44;48.95
41800;BME280;27468;47.460;19.034;2023-03-04T08:29:17;100385.59;;;5.50;49.21
41800;BME280;27468;47.460;19.034;2023-03-04T08:31:44;100343.75;;;5.40;47.99
41800;BME280;27468;47.460;19.034;2023-03-04T08:34:11;100350.72;;;5.54;47.98
41800;BME280;27468;47.460;19.034;2023-03-04T08:36:37;100383.84;;;5.89;47.25
41800;BME280;27468;47.460;19.034;2023-03-04T08:39:04;100335.88;;;5.97;46.30
41800;BME280;27468;47.460;19.034;2023-03-04T08:41:30;100369.78;;;6.36;46.27
41800;BME280;27468;47.460;19.034;2023-03-04T08:43:55;100399.44;;;6.48;46.30
41800;BME280;27468;47.460;19.034;2023-03-04T08:46:21;100389.84;;;6.43;47.06
41800;BME280;27468;47.460;19.034;2023-03-04T08:48:46;100375.03;;;6.37;46.90
41800;BME280;27468;47.460;19.034;2023-03-04T08:51:13;100344.53;;;6.32;46.59
41800;BME280;27468;47.460;19.034;2023-03-04T08:53:39;100347.06;;;6.48;46.61
41800;BME280;27468;47.460;19.034;2023-03-04T08:56:05;100388.88;;;6.74;46.49
41800;BME280;27468;47.460;19.034;2023-03-04T08:58:31;100376.66;;;6.70;46.26
41800;BME280;27468;47.460;19.034;2023-03-04T09:00:59;100387.97;;;6.81;46.01
41800;BME280;27468;47.460;19.034;2023-03-04T09:03:25;100352.19;;;6.74;45.90
41800;BME280;27468;47.460;19.034;2023-03-04T09:05:50;100378.22;;;7.06;44.89
41800;BME280;27468;47.460;19.034;2023-03-04T09:08:16;100379.88;;;7.22;44.25
41800;BME280;27468;47.460;19.034;2023-03-04T09:10:42;100326.72;;;6.96;44.56
41800;BME280;27468;47.460;19.034;2023-03-04T09:13:08;100321.47;;;6.96;44.87
41800;BME280;27468;47.460;19.034;2023-03-04T09:15:36;100363.22;;;7.28;44.86
41800;BME280;27468;47.460;19.034;2023-03-04T09:18:02;100344.88;;;7.28;44.75
41800;BME280;27468;47.460;19.034;2023-03-04T09:20:29;100356.97;;;7.49;44.56
41800;BME280;27468;47.460;19.034;2023-03-04T09:22:55;100313.41;;;7.28;44.39
41800;BME280;27468;47.460;19.034;2023-03-04T09:25:21;100363.84;;;7.59;44.58
41800;BME280;27468;47.460;19.034;2023-03-04T09:27:46;100313.34;;;7.37;44.73
41800;BME280;27468;47.460;19.034;2023-03-04T09:30:12;100337.59;;;7.62;44.98
41800;BME280;27468;47.460;19.034;2023-03-04T09:32:38;100340.22;;;7.63;45.20
41800;BME280;27468;47.460;19.034;2023-03-04T09:35:04;100340.91;;;7.82;44.95
41800;BME280;27468;47.460;19.034;2023-03-04T09:37:30;100346.16;;;7.84;45.24
41800;BME280;27468;47.460;19.034;2023-03-04T09:39:55;100248.72;;;7.30;45.40
41800;BME280;27468;47.460;19.034;2023-03-04T09:42:26;100344.28;;;7.97;44.92
41800;BME280;27468;47.460;19.034;2023-03-04T09:44:53;100335.50;;;8.01;45.33
41800;BME280;27468;47.460;19.034;2023-03-04T09:47:20;100341.56;;;8.06;44.87
41800;BME280;27468;47.460;19.034;2023-03-04T09:49:55;100331.06;;;8.07;45.01
41800;BME280;27468;47.460;19.034;2023-03-04T10:02:34;100327.19;;;8.40;44.15
41800;BME280;27468;47.460;19.034;2023-03-04T10:05:05;100303.66;;;8.29;43.96
41800;BME280;27468;47.460;19.034;2023-03-04T10:07:36;100321.00;;;8.46;44.26
41800;BME280;27468;47.460;19.034;2023-03-04T10:10:18;100320.13;;;8.47;44.09
41800;BME280;27468;47.460;19.034;2023-03-04T10:12:48;100321.81;;;8.51;44.07
41800;BME280;27468;47.460;19.034;2023-03-04T10:18:13;100319.03;;;8.63;44.26
41800;BME280;27468;47.460;19.034;2023-03-04T10:20:57;100255.47;;;8.34;43.74
41800;BME280;27468;47.460;19.034;2023-03-04T10:23:27;100318.94;;;8.69;43.97
41800;BME280;27468;47.460;19.034;2023-03-04T10:25:54;100311.88;;;8.73;43.27
41800;BME280;27468;47.460;19.034;2023-03-04T10:28:25;100263.16;;;8.49;43.41
41800;BME280;27468;47.460;19.034;2023-03-04T10:31:01;100310.88;;;8.81;43.46
41800;BME280;27468;47.460;19.034;2023-03-04T10:33:31;100303.84;;;8.83;43.47
41800;BME280;27468;47.460;19.034;2023-03-04T10:38:43;100305.50;;;8.90;41.64
41800;BME280;27468;47.460;19.034;2023-03-04T10:41:17;100287.22;;;8.83;42.28
41800;BME280;27468;47.460;19.034;2023-03-04T10:43:49;100294.06;;;8.94;42.44
41800;BME280;27468;47.460;19.034;2023-03-04T10:46:14;100290.53;;;8.96;42.14
41800;BME280;27468;47.460;19.034;2023-03-04T10:48:42;100293.91;;;9.05;42.32
41800;BME280;27468;47.460;19.034;2023-03-04T10:51:24;100276.38;;;9.04;41.67
41800;BME280;27468;47.460;19.034;2023-03-04T10:54:19;100273.66;;;9.10;40.95
41800;BME280;27468;47.460;19.034;2023-03-04T11:07:26;100260.50;;;9.10;39.63
41800;BME280;27468;47.460;19.034;2023-03-04T11:09:52;100252.53;;;9.16;39.03
41800;BME280;27468;47.460;19.034;2023-03-04T11:12:31;100224.72;;;9.02;38.81
41800;BME280;27468;47.460;19.034;2023-03-04T11:14:57;100251.66;;;9.16;38.17
41800;BME280;27468;47.460;19.034;2023-03-04T11:17:25;100253.25;;;9.24;38.27
41800;BME280;27468;47.460;19.034;2023-03-04T11:20:00;100240.94;;;9.26;38.47
41800;BME280;27468;47.460;19.034;2023-03-04T11:22:30;100245.31;;;9.26;38.10
41800;BME280;27468;47.460;19.034;2023-03-04T11:25:05;100237.47;;;9.24;38.61
41800;BME280;27468;47.460;19.034;2023-03-04T11:27:41;100244.34;;;9.32;38.66
41800;BME280;27468;47.460;19.034;2023-03-04T11:30:30;100242.59;;;9.32;38.68
41800;BME280;27468;47.460;19.034;2023-03-04T11:35:46;100240.53;;;9.49;38.71
41800;BME280;27468;47.460;19.034;2023-03-04T11:38:31;100189.03;;;9.36;38.22
41800;BME280;27468;47.460;19.034;2023-03-04T11:43:45;100218.38;;;9.63;38.04
41800;BME280;27468;47.460;19.034;2023-03-04T11:49:19;100218.38;;;9.63;38.24
41800;BME280;27468;47.460;19.034;2023-03-04T11:54:44;100174.09;;;9.38;38.55
41800;BME280;27468;47.460;19.034;2023-03-04T12:02:47;100207.66;;;9.73;38.79
41800;BME280;27468;47.460;19.034;2023-03-04T12:05:26;100196.19;;;9.76;38.79
41800;BME280;27468;47.460;19.034;2023-03-04T12:11:01;100142.25;;;9.52;39.32
41800;BME280;27468;47.460;19.034;2023-03-04T12:14:10;100190.69;;;9.86;39.24
41800;BME280;27468;47.460;19.034;2023-03-04T12:27:45;100179.84;;;10.02;39.45
41800;BME280;27468;47.460;19.034;2023-03-04T12:30:34;100156.28;;;9.96;39.33
41800;BME280;27468;47.460;19.034;2023-03-04T12:35:58;100167.28;;;10.14;39.54
41800;BME280;27468;47.460;19.034;2023-03-04T12:43:59;100152.94;;;10.31;38.87
41800;BME280;27468;47.460;19.034;2023-03-04T12:52:20;100147.78;;;10.24;39.00
41800;BME280;27468;47.460;19.034;2023-03-04T12:55:03;100153.78;;;10.31;38.44
41800;BME280;27468;47.460;19.034;2023-03-04T12:57:34;100060.13;;;9.78;38.72
41800;BME280;27468;47.460;19.034;2023-03-04T13:03:51;100138.75;;;10.36;39.14
41800;BME280;27468;47.460;19.034;2023-03-04T13:06:27;100128.06;;;10.41;38.85
41800;BME280;27468;47.460;19.034;2023-03-04T13:11:44;100068.78;;;10.23;38.60
41800;BME280;27468;47.460;19.034;2023-03-04T13:19:41;100110.84;;;10.63;38.89
41800;BME280;27468;47.460;19.034;2023-03-04T13:28:12;100073.78;;;10.69;38.09
41800;BME280;27468;47.460;19.034;2023-03-04T13:30:42;100064.25;;;10.64;37.95
41800;BME280;27468;47.460;19.034;2023-03-04T13:36:01;100060.84;;;10.60;38.30
41800;BME280;27468;47.460;19.034;2023-03-04T13:41:22;100028.53;;;10.52;37.93
41800;BME280;27468;47.460;19.034;2023-03-04T13:43:55;100014.47;;;10.51;36.16
41800;BME280;27468;47.460;19.034;2023-03-04T13:59:10;100036.16;;;10.97;32.81
41800;BME280;27468;47.460;19.034;2023-03-04T14:04:26;100017.03;;;10.88;32.32
41800;BME280;27468;47.460;19.034;2023-03-04T14:06:53;100016.88;;;10.95;32.24
41800;BME280;27468;47.460;19.034;2023-03-04T14:11:54;100028.84;;;11.06;31.61
41800;BME280;27468;47.460;19.034;2023-03-04T14:14:27;100024.59;;;11.01;31.82
41800;BME280;27468;47.460;19.034;2023-03-04T14:16:59;100026.19;;;11.06;31.35
41800;BME280;27468;47.460;19.034;2023-03-04T14:19:30;100015.06;;;10.97;31.52
41800;BME280;27468;47.460;19.034;2023-03-04T14:21:59;100016.09;;;10.91;31.80
41800;BME280;27468;47.460;19.034;2023-03-04T14:24:24;100021.44;;;10.88;32.18
41800;BME280;27468;47.460;19.034;2023-03-04T14:27:08;100011.72;;;10.90;31.83
41800;BME280;27468;47.460;19.034;2023-03-04T14:29:35;100013.50;;;10.89;31.58
41800;BME280;27468;47.460;19.034;2023-03-04T14:32:04;100027.53;;;10.90;31.70
41800;BME280;27468;47.460;19.034;2023-03-04T14:34:35;100018.72;;;10.91;30.77
41800;BME280;27468;47.460;19.034;2023-03-04T14:37:03;100011.88;;;10.84;30.37
41800;BME280;27468;47.460;19.034;2023-03-04T14:39:31;100042.31;;;10.97;30.60
41800;BME280;27468;47.460;19.034;2023-03-04T14:42:09;99999.88;;;10.72;31.19
41800;BME280;27468;47.460;19.034;2023-03-04T14:44:43;100030.16;;;10.91;31.55
41800;BME280;27468;47.460;19.034;2023-03-04T14:47:23;100020.00;;;10.76;32.11
41800;BME280;27468;47.460;19.034;2023-03-04T14:49:52;100022.59;;;10.78;32.24